createdAt,value
2024-02-08T00:02:50.742Z,18.6
2024-02-08T00:05:50.741Z,18.2
2024-02-08T00:08:50.743Z,18.6
2024-02-08T00:11:50.787Z,18.4
2024-02-08T00:14:50.760Z,19.2
2024-02-08T00:17:50.792Z,17.7
2024-02-08T00:20:50.786Z,18.8
2024-02-08T00:23:50.768Z,18.1
2024-02-08T00:26:50.767Z,17.7
2024-02-08T00:29:50.770Z,17.8
2024-02-08T00:32:50.846Z,17.6
2024-02-08T00:35:50.772Z,16.6
2024-02-08T00:38:50.807Z,16.6
2024-02-08T00:41:50.806Z,16.9
2024-02-08T00:44:50.799Z,16.3
2024-02-08T00:47:50.817Z,14.7
2024-02-08T00:50:50.787Z,13.1
2024-02-08T00:53:50.815Z,12.4
2024-02-08T00:56:50.818Z,12.3
2024-02-08T00:59:50.803Z,11.5
2024-02-08T01:02:50.825Z,11.4
2024-02-08T01:05:50.861Z,11.5
2024-02-08T01:08:50.824Z,11.1
2024-02-08T01:11:50.832Z,10.2
2024-02-08T01:14:50.832Z,10.8
2024-02-08T01:17:50.857Z,10.6
2024-02-08T01:20:50.840Z,10.4
2024-02-08T01:23:50.848Z,10.3
2024-02-08T01:26:50.857Z,10
2024-02-08T01:29:50.844Z,9.8
2024-02-08T01:32:50.876Z,9.9
2024-02-08T01:35:50.868Z,9.9
2024-02-08T01:38:50.882Z,9.9
2024-02-08T01:41:50.891Z,9.6
2024-02-08T01:44:50.909Z,9.3
2024-02-08T01:47:50.930Z,9
2024-02-08T01:50:50.913Z,9.8
2024-02-08T01:53:50.916Z,9.4
2024-02-08T01:56:50.928Z,9.9
2024-02-08T01:59:50.935Z,10.2
2024-02-08T02:02:50.944Z,9.4
2024-02-08T02:05:50.955Z,9.5
2024-02-08T02:08:50.944Z,9.6
2024-02-08T02:11:50.985Z,9.1
2024-02-08T02:14:50.981Z,8.5
2024-02-08T02:17:50.995Z,8.8
2024-02-08T02:20:50.988Z,8.5
2024-02-08T02:23:51.004Z,9
2024-02-08T02:26:51.010Z,9
2024-02-08T02:29:51.064Z,9.5
2024-02-08T02:32:51.265Z,8.8
2024-02-08T02:35:51.107Z,9.1
2024-02-08T02:38:51.042Z,8.7
2024-02-08T02:41:51.057Z,8.5
2024-02-08T02:44:51.069Z,8.4
2024-02-08T02:47:51.127Z,8.9
2024-02-08T02:50:51.076Z,9.4
2024-02-08T02:53:51.082Z,9.5
2024-02-08T02:56:51.097Z,9.2
2024-02-08T02:59:51.098Z,9.6
2024-02-08T03:02:51.102Z,10.3
2024-02-08T03:05:51.111Z,9.6
2024-02-08T03:08:51.342Z,9.4
2024-02-08T03:11:51.134Z,9.2
2024-02-08T03:14:51.156Z,8.9
2024-02-08T03:17:51.192Z,9.1
2024-02-08T03:20:51.162Z,8.9
2024-02-08T03:23:51.185Z,8.2
2024-02-08T03:26:51.189Z,8.1
2024-02-08T03:29:51.196Z,8.2
2024-02-08T03:32:51.209Z,8.3
2024-02-08T03:35:51.204Z,9.1
2024-02-08T03:38:51.215Z,8.8
2024-02-08T03:41:51.222Z,8.7
2024-02-08T03:44:51.208Z,9.3
2024-02-08T03:47:51.259Z,8.9
2024-02-08T03:50:51.227Z,8.7
2024-02-08T03:53:51.217Z,8.6
2024-02-08T03:56:51.320Z,8.9
2024-02-08T03:59:51.216Z,9
2024-02-08T04:02:51.250Z,8.2
2024-02-08T04:05:51.313Z,8.5
2024-02-08T04:08:51.227Z,8.4
2024-02-08T04:11:51.230Z,7.9
2024-02-08T04:14:51.230Z,8.1
2024-02-08T04:17:51.255Z,8.6
2024-02-08T04:20:51.236Z,8.2
2024-02-08T04:23:51.251Z,8.6
2024-02-08T04:26:51.243Z,9.1
2024-02-08T04:29:51.244Z,9.3
2024-02-08T04:32:51.297Z,9.5
2024-02-08T04:35:51.242Z,9.4
2024-02-08T04:38:51.241Z,9.3
2024-02-08T04:41:51.240Z,9.7
2024-02-08T04:44:51.243Z,9.7
2024-02-08T04:47:51.294Z,9.3
2024-02-08T04:50:51.256Z,8.9
2024-02-08T04:53:51.243Z,8.9
2024-02-08T04:56:51.249Z,9
2024-02-08T04:59:54.247Z,8.5
2024-02-08T05:02:51.254Z,8.6
2024-02-08T05:05:51.271Z,8.4
2024-02-08T05:08:51.260Z,7.8
2024-02-08T05:11:51.285Z,7.4
2024-02-08T05:14:51.260Z,7.4
2024-02-08T05:17:51.279Z,7.7
2024-02-08T05:20:51.263Z,7.3
2024-02-08T05:23:51.266Z,7.2
2024-02-08T05:26:51.259Z,7.8
2024-02-08T05:29:51.257Z,7.7
2024-02-08T05:32:51.289Z,7.8
2024-02-08T05:35:51.268Z,7.1
2024-02-08T05:38:51.271Z,7.3
2024-02-08T05:41:51.271Z,7
2024-02-08T05:44:51.268Z,7
2024-02-08T05:47:51.302Z,7.2
2024-02-08T05:50:51.281Z,7.1
2024-02-08T05:53:51.277Z,7.4
2024-02-08T05:56:53.481Z,7.4
2024-02-08T05:59:51.283Z,7.2
2024-02-08T06:02:51.291Z,6.9
2024-02-08T06:05:51.286Z,6.9
2024-02-08T06:08:51.285Z,7
2024-02-08T06:11:51.292Z,7.1
2024-02-08T06:14:51.292Z,7.7
2024-02-08T06:17:51.349Z,7.2
2024-02-08T06:20:51.298Z,7.4
2024-02-08T06:23:51.297Z,7.8
2024-02-08T06:26:51.300Z,8.4
2024-02-08T06:29:51.509Z,8
2024-02-08T06:32:51.349Z,8.2
2024-02-08T06:35:51.308Z,8.2
2024-02-08T06:38:51.314Z,7.9
2024-02-08T06:41:51.328Z,8.2
2024-02-08T06:44:51.336Z,8.5
2024-02-08T06:47:51.463Z,8.6
2024-02-08T06:50:51.315Z,8.4
2024-02-08T06:53:51.312Z,8.6
2024-02-08T06:56:51.425Z,8.8
2024-02-08T06:59:53.243Z,8.5
2024-02-08T07:02:51.323Z,8.5
2024-02-08T07:05:51.332Z,8.1
2024-02-08T07:08:51.335Z,8.3
2024-02-08T07:11:51.342Z,8.2
2024-02-08T07:14:51.348Z,8
2024-02-08T07:17:51.344Z,8.5
2024-02-08T07:20:51.343Z,8.5
2024-02-08T07:23:51.345Z,8.6
2024-02-08T07:26:51.354Z,8.5
2024-02-08T07:29:51.337Z,8.3
2024-02-08T07:32:51.364Z,8.5
2024-02-08T07:35:51.365Z,8.7
2024-02-08T07:38:51.359Z,7.9
2024-02-08T07:41:51.369Z,8.1
2024-02-08T07:44:51.346Z,8.1
2024-02-08T07:47:51.411Z,7.6
2024-02-08T07:50:51.370Z,8.4
2024-02-08T07:53:51.375Z,8.6
2024-02-08T07:56:51.376Z,8.8
2024-02-08T07:59:51.364Z,11
2024-02-08T08:02:51.361Z,9.2
2024-02-08T08:05:51.368Z,8.8
2024-02-08T08:08:51.367Z,8.4
2024-02-08T08:11:51.398Z,8.2
2024-02-08T08:14:51.372Z,7.7
2024-02-08T08:17:51.453Z,7.7
2024-02-08T08:20:51.378Z,7.5
2024-02-08T08:23:51.402Z,7.5
2024-02-08T08:26:51.416Z,8.1
2024-02-08T08:29:51.401Z,8
2024-02-08T08:32:51.491Z,7.8
2024-02-08T08:35:51.391Z,8
2024-02-08T08:38:51.397Z,8
2024-02-08T08:41:51.504Z,8
2024-02-08T08:44:51.416Z,8.1
2024-02-08T08:47:51.506Z,7.1
2024-02-08T08:50:51.451Z,6.4
2024-02-08T08:53:51.426Z,6.8
2024-02-08T08:56:51.422Z,6.6
2024-02-08T08:59:51.448Z,6.8
2024-02-08T09:02:51.439Z,6.6
2024-02-08T09:05:51.440Z,7.6
2024-02-08T09:08:51.445Z,7.7
2024-02-08T09:11:51.436Z,7.1
2024-02-08T09:14:51.439Z,7.3
2024-02-08T09:17:51.448Z,6.4
2024-02-08T09:20:51.442Z,6.6
2024-02-08T09:23:51.442Z,8
2024-02-08T09:26:51.453Z,6.9
2024-02-08T09:29:51.492Z,6.3
2024-02-08T09:32:51.492Z,6
2024-02-08T09:35:51.477Z,5.6
2024-02-08T09:38:51.469Z,6
2024-02-08T09:41:51.453Z,5.9
2024-02-08T09:44:51.454Z,5.8
2024-02-08T09:47:51.493Z,5.5
2024-02-08T09:50:51.612Z,5.5
2024-02-08T09:53:51.493Z,5.3
2024-02-08T09:56:51.484Z,5.9
2024-02-08T09:59:51.481Z,6
2024-02-08T10:02:51.492Z,5.2
2024-02-08T10:05:51.491Z,5.2
2024-02-08T10:08:51.482Z,5.5
2024-02-08T10:11:51.498Z,4.9
2024-02-08T10:14:51.530Z,5.2
2024-02-08T10:17:51.549Z,5
2024-02-08T10:20:51.526Z,5
2024-02-08T10:23:51.502Z,4.8
2024-02-08T10:26:51.503Z,5
2024-02-08T10:29:51.516Z,5.2
2024-02-08T10:32:51.570Z,4.3
2024-02-08T10:35:51.510Z,4.4
2024-02-08T10:38:51.523Z,4.7
2024-02-08T10:41:51.515Z,4.8
2024-02-08T10:44:51.528Z,4.4
2024-02-08T10:47:51.560Z,4.7
2024-02-08T10:50:51.540Z,4.7
2024-02-08T10:53:51.563Z,3.8
2024-02-08T10:56:51.553Z,4.6
2024-02-08T10:59:51.553Z,4.2
2024-02-08T11:02:51.557Z,4.4
2024-02-08T11:05:51.611Z,4.7
2024-02-08T11:08:51.994Z,4.6
2024-02-08T11:11:51.565Z,4.3
2024-02-08T11:14:51.577Z,4.3
2024-02-08T11:17:51.633Z,4.2
2024-02-08T11:20:51.575Z,5.6
2024-02-08T11:23:51.590Z,4.8
2024-02-08T11:26:51.584Z,4.4
2024-02-08T11:29:51.599Z,4.3
2024-02-08T11:32:51.620Z,4.3
2024-02-08T11:35:51.607Z,4.3
2024-02-08T11:38:51.599Z,4.3
2024-02-08T11:41:51.609Z,4.8
2024-02-08T11:44:51.678Z,4.9
2024-02-08T11:47:51.738Z,4.9
2024-02-08T11:50:52.761Z,5
2024-02-08T11:53:51.646Z,4.6
2024-02-08T11:56:51.638Z,4.3
2024-02-08T11:59:51.648Z,4.5
2024-02-08T12:02:51.643Z,4.6
2024-02-08T12:05:51.650Z,3.9
2024-02-08T12:08:51.672Z,4.9
2024-02-08T12:11:51.722Z,4.8
2024-02-08T12:14:51.664Z,5.3
2024-02-08T12:17:51.780Z,5.4
2024-02-08T12:20:51.720Z,4
2024-02-08T12:23:51.708Z,3.5
2024-02-08T12:26:51.694Z,4.2
2024-02-08T12:29:51.855Z,3.7
2024-02-08T12:32:51.778Z,3.6
2024-02-08T12:35:51.714Z,3.8
2024-02-08T12:38:51.756Z,4.1
2024-02-08T12:41:51.742Z,3.9
2024-02-08T12:44:51.850Z,3.9
2024-02-08T12:47:51.748Z,3.5
2024-02-08T12:50:51.754Z,3.3
2024-02-08T12:53:51.757Z,3.4
2024-02-08T12:56:51.770Z,3.2
2024-02-08T12:59:51.777Z,2.7
2024-02-08T13:02:51.784Z,3.2
2024-02-08T13:05:51.892Z,2.9
2024-02-08T13:08:51.794Z,2.5
2024-02-08T13:11:51.806Z,2.7
2024-02-08T13:14:51.825Z,3.1
2024-02-08T13:17:52.414Z,2.7
2024-02-08T13:20:51.836Z,3.5
2024-02-08T13:23:51.841Z,3
2024-02-08T13:26:51.858Z,3
2024-02-08T13:29:51.849Z,3.2
2024-02-08T13:32:51.944Z,2.6
2024-02-08T13:35:51.931Z,2.9
2024-02-08T13:38:51.906Z,2.4
2024-02-08T13:41:51.891Z,2.9
2024-02-08T13:44:52.012Z,2.8
2024-02-08T13:47:52.159Z,2.6
2024-02-08T13:50:51.908Z,3.1
2024-02-08T13:53:51.909Z,2.7
2024-02-08T13:56:51.918Z,3.2
2024-02-08T13:59:51.922Z,3.1
2024-02-08T14:02:51.935Z,3
2024-02-08T14:05:52.614Z,3.1
2024-02-08T14:08:51.949Z,3.2
2024-02-08T14:11:51.957Z,3
2024-02-08T14:14:51.971Z,2.8
2024-02-08T14:17:52.021Z,3
2024-02-08T14:20:51.982Z,2.7
2024-02-08T14:23:52.816Z,2.9
2024-02-08T14:26:51.996Z,3
2024-02-08T14:29:52.015Z,3
2024-02-08T14:32:52.112Z,2.7
2024-02-08T14:35:52.063Z,2.7
2024-02-08T14:38:52.049Z,3.2
2024-02-08T14:41:52.061Z,2.8
2024-02-08T14:44:52.057Z,3.2
2024-02-08T14:47:52.079Z,4
2024-02-08T14:50:52.081Z,3.1
2024-02-08T14:53:52.088Z,3.7
2024-02-08T14:56:52.091Z,3.6
2024-02-08T14:59:52.506Z,2.7
2024-02-08T15:02:52.134Z,3.4
2024-02-08T15:05:52.138Z,3
2024-02-08T15:08:52.129Z,3.1
2024-02-08T15:11:52.151Z,3.4
2024-02-08T15:14:52.142Z,3.3
2024-02-08T15:17:52.175Z,3.6
2024-02-08T15:20:52.190Z,3.5
2024-02-08T15:23:52.174Z,3.4
2024-02-08T15:26:52.185Z,1.8
2024-02-08T15:29:52.201Z,1.3
2024-02-08T15:32:52.235Z,1.1
2024-02-08T15:35:52.235Z,1.7
2024-02-08T15:38:52.265Z,2.1
2024-02-08T15:41:52.355Z,1.7
2024-02-08T15:44:52.258Z,1.4
2024-02-08T15:47:52.269Z,2.1
2024-02-08T15:50:52.272Z,1.7
2024-02-08T15:53:52.275Z,1.9
2024-02-08T15:56:52.260Z,2.7
2024-02-08T15:59:52.269Z,2.7
2024-02-08T16:02:52.357Z,3
2024-02-08T16:05:52.339Z,2.7
2024-02-08T16:08:52.291Z,2.7
2024-02-08T16:11:52.293Z,2.7
2024-02-08T16:14:52.289Z,3
2024-02-08T16:17:52.319Z,3.1
2024-02-08T16:20:52.304Z,4
2024-02-08T16:23:52.301Z,4.1
2024-02-08T16:26:52.300Z,5
2024-02-08T16:29:52.303Z,5.1
2024-02-08T16:32:52.336Z,5.2
2024-02-08T16:35:52.338Z,5.1
2024-02-08T16:38:52.304Z,5.7
2024-02-08T16:41:52.326Z,6.1
2024-02-08T16:44:52.624Z,6.2
2024-02-08T16:47:52.319Z,7
2024-02-08T16:50:52.332Z,8.5
2024-02-08T16:53:52.318Z,8.3
2024-02-08T16:56:52.330Z,7
2024-02-08T16:59:52.339Z,5.9
2024-02-08T17:02:52.342Z,5.8
2024-02-08T17:05:52.394Z,5.6
2024-02-08T17:08:52.341Z,5.4
2024-02-08T17:11:52.364Z,5.6
2024-02-08T17:14:52.340Z,5.8
2024-02-08T17:17:52.416Z,5.6
2024-02-08T17:20:52.355Z,5.3
2024-02-08T17:23:52.339Z,5.9
2024-02-08T17:26:52.342Z,6.2
2024-02-08T17:29:52.448Z,6.3
2024-02-08T17:32:52.348Z,5.8
2024-02-08T17:35:52.409Z,6.9
2024-02-08T17:38:52.352Z,7.2
2024-02-08T17:41:52.384Z,7.7
2024-02-08T17:44:52.359Z,7.9
2024-02-08T17:47:52.418Z,8.4
2024-02-08T17:50:52.365Z,8.4
2024-02-08T17:53:52.379Z,9.3
2024-02-08T17:56:52.376Z,9.6
2024-02-08T17:59:52.466Z,10.5
2024-02-08T18:02:52.375Z,10.6
2024-02-08T18:05:52.440Z,11.4
2024-02-08T18:08:52.386Z,11
2024-02-08T18:11:52.394Z,11
2024-02-08T18:14:52.391Z,10.9
2024-02-08T18:17:52.401Z,10.6
2024-02-08T18:20:52.457Z,10.2
2024-02-08T18:23:52.393Z,9.9
2024-02-08T18:26:52.397Z,9.2
2024-02-08T18:29:52.543Z,8.9
2024-02-08T18:32:52.432Z,8
2024-02-08T18:35:52.427Z,7.8
2024-02-08T18:38:52.443Z,7.4
2024-02-08T18:41:52.465Z,7.8
2024-02-08T18:44:52.411Z,7.4
2024-02-08T18:47:52.428Z,7.2
2024-02-08T18:50:52.412Z,7.8
2024-02-08T18:53:52.412Z,7.1
2024-02-08T18:56:52.411Z,7.3
2024-02-08T18:59:52.421Z,7.1
2024-02-08T19:02:52.467Z,7.4
2024-02-08T19:05:52.538Z,7.2
2024-02-08T19:08:52.422Z,7.4
2024-02-08T19:11:52.423Z,6.5
2024-02-08T19:14:52.426Z,7.7
2024-02-08T19:17:57.009Z,7.7
2024-02-08T19:20:52.551Z,8
2024-02-08T19:23:52.420Z,9.6
2024-02-08T19:26:52.422Z,8.8
2024-02-08T19:29:52.442Z,8.5
2024-02-08T19:32:52.492Z,8
2024-02-08T19:35:52.442Z,7.9
2024-02-08T19:38:52.458Z,8
2024-02-08T19:41:52.436Z,8.3
2024-02-08T19:44:52.439Z,8.7
2024-02-08T19:47:52.447Z,8.6
2024-02-08T19:50:52.542Z,9.1
2024-02-08T19:53:52.436Z,7.8
2024-02-08T19:56:52.445Z,8.3
2024-02-08T19:59:52.596Z,8.2
2024-02-08T20:02:52.449Z,8.3
2024-02-08T20:05:52.501Z,7.9
2024-02-08T20:08:52.444Z,7.8
2024-02-08T20:11:52.447Z,8.1
2024-02-08T20:14:52.472Z,7.3
2024-02-08T20:17:53.628Z,7.3
2024-02-08T20:20:52.458Z,7.2
2024-02-08T20:23:52.454Z,6.5
2024-02-08T20:26:52.468Z,6.8
2024-02-08T20:29:52.505Z,6.9
2024-02-08T20:32:52.498Z,7
2024-02-08T20:35:52.474Z,6.6
2024-02-08T20:38:52.601Z,6.7
2024-02-08T20:41:52.482Z,6.5
2024-02-08T20:44:52.481Z,6.9
2024-02-08T20:47:52.532Z,6.7
2024-02-08T20:50:52.568Z,6.8
2024-02-08T20:53:52.472Z,6.9
2024-02-08T20:56:52.475Z,6.6
2024-02-08T20:59:52.483Z,6.9
2024-02-08T21:02:52.502Z,7
2024-02-08T21:05:52.512Z,6.9
2024-02-08T21:08:52.517Z,7.1
2024-02-08T21:11:52.498Z,7
2024-02-08T21:14:52.527Z,7.7
2024-02-08T21:17:52.529Z,7.5
2024-02-08T21:20:52.598Z,7.7
2024-02-08T21:23:52.522Z,8.1
2024-02-08T21:26:52.622Z,7.5
2024-02-08T21:29:52.506Z,7.6
2024-02-08T21:32:52.624Z,7.4
2024-02-08T21:35:52.521Z,7.3
2024-02-08T21:38:52.527Z,7
2024-02-08T21:41:52.512Z,7
2024-02-08T21:44:52.510Z,7.2
2024-02-08T21:47:52.533Z,6.6
2024-02-08T21:50:52.527Z,6.6
2024-02-08T21:53:52.525Z,6.5
2024-02-08T21:56:52.546Z,6.3
2024-02-08T21:59:52.538Z,6.7
2024-02-08T22:03:57.520Z,6.2
2024-02-08T22:05:52.660Z,6
2024-02-08T22:08:52.575Z,6.3
2024-02-08T22:11:52.560Z,6.2
2024-02-08T22:14:52.570Z,6.2
2024-02-08T22:17:52.610Z,6.2
2024-02-08T22:20:52.578Z,6.1
2024-02-08T22:23:52.584Z,6.1
2024-02-08T22:26:52.603Z,6.3
2024-02-08T22:29:52.591Z,6
2024-02-08T22:32:52.585Z,6.1
2024-02-08T22:35:52.588Z,6
2024-02-08T22:38:52.587Z,6.2
2024-02-08T22:41:52.601Z,6
2024-02-08T22:44:52.597Z,6.2
2024-02-08T22:47:52.628Z,6.1
2024-02-08T22:50:52.750Z,6.1
2024-02-08T22:53:52.602Z,6.3
2024-02-08T22:56:52.810Z,6.2
2024-02-08T22:59:52.602Z,6.3
2024-02-08T23:02:52.599Z,5.9
2024-02-08T23:05:52.624Z,5.8
2024-02-08T23:08:52.616Z,5.9
2024-02-08T23:11:52.606Z,6.2
2024-02-08T23:14:52.622Z,6
2024-02-08T23:17:52.699Z,5.9
2024-02-08T23:20:52.627Z,5.8
2024-02-08T23:23:52.617Z,5.6
2024-02-08T23:26:52.795Z,5.8
2024-02-08T23:29:52.633Z,5.3
2024-02-08T23:32:52.867Z,5.7
2024-02-08T23:35:52.623Z,5.6
2024-02-08T23:38:52.632Z,5.4
2024-02-08T23:41:52.635Z,5.6
2024-02-08T23:44:52.642Z,5.5
2024-02-08T23:47:52.639Z,5.7
2024-02-08T23:50:52.643Z,5.6
2024-02-08T23:53:52.648Z,5.5
2024-02-08T23:56:52.639Z,5.6
2024-02-08T23:59:52.652Z,5.4
